Weather reports worldwide

Advertisment
Capdepera,Faro, Spain (8311): temperature & dewpoint: 02.08.2020 04:00:00 - 08.08.2020 04:00:00 (CEST)Capdepera,Faro, Spain (8311): wind speed & gusts: 02.08.2020 04:00:00 - 08.08.2020 04:00:00 (CEST)Capdepera,Faro, Spain (8311): wind direction: 02.08.2020 04:00:00 - 08.08.2020 04:00:00 (CEST)Capdepera,Faro, Spain (8311): precipitation: 02.08.2020 04:00:00 - 08.08.2020 04:00:00 (CEST)
Date & Time tt [°C] td [°C] ff [km/h] ff [kn] fx [km/h] fx [kn] dd rr [mm]
08.08.2020 04:00:00 25,0 19,3 3 1 8 4 S 0,0
08.08.2020 03:00:00 25,1 19,7 3 2 13 7 SSW 0,0
08.08.2020 02:00:00 25,6 20,9 7 4 11 6 S -
08.08.2020 01:00:00 25,7 21,6 3 1 7 4 SSE 0,0
08.08.2020 00:00:00 25,6 20,2 5 3 9 5 SW 0,0
07.08.2020 23:00:00 25,8 20,8 1 1 11 6 SW 0,0
07.08.2020 22:00:00 26,1 21,1 2 1 19 10 WSW 0,0
07.08.2020 21:00:00 26,7 21,7 10 5 20 11 S 0,0
07.08.2020 20:00:00 27,4 21,2 13 7 17 9 S -
07.08.2020 19:00:00 28,7 20,9 13 7 16 8 S 0,0
07.08.2020 18:00:00 30,1 20,9 12 6 16 9 S 0,0
07.08.2020 17:00:00 30,7 19,7 12 6 14 8 SSE 0,0
07.08.2020 16:00:00 30,6 20,8 10 6 13 7 SE 0,0
07.08.2020 15:00:00 31,6 20,5 9 5 13 7 SSE 0,0
07.08.2020 14:00:00 31,9 21,8 10 5 13 7 SSE -
07.08.2020 13:00:00 31,3 21,8 10 5 14 8 SSE 0,0
07.08.2020 12:00:00 29,5 21,7 9 5 12 7 ESE 0,0
07.08.2020 11:00:00 29,2 22,4 8 4 13 7 E 0,0
07.08.2020 10:00:00 28,6 22,8 5 3 10 5 E 0,0
07.08.2020 09:00:00 28,8 22,6 4 2 8 4 SE 0,0
07.08.2020 08:00:00 26,8 22,2 1 1 5 3 WSW -
07.08.2020 07:00:00 24,5 21,4 2 1 5 3 NNW 0,0
07.08.2020 06:00:00 24,3 20,6 2 1 8 4 N 0,0
07.08.2020 05:00:00 24,2 19,3 6 3 10 6 NW 0,0
07.08.2020 04:00:00 24,3 20,0 5 3 8 4 SW 0,0
07.08.2020 03:00:00 24,3 20,6 2 1 7 4 SSW 0,0
07.08.2020 02:00:00 24,6 20,7 1 1 6 4 S -
07.08.2020 01:00:00 24,8 20,9 3 1 6 4 SW 0,0
07.08.2020 00:00:00 24,9 21,0 3 1 9 5 SSW 0,0
06.08.2020 23:00:00 25,2 21,5 3 2 12 6 SW 0,0
06.08.2020 22:00:00 25,9 21,8 9 5 14 8 S 0,0
06.08.2020 21:00:00 26,2 21,8 9 5 14 8 S 0,0
06.08.2020 20:00:00 26,9 22,1 9 5 13 7 S -
06.08.2020 19:00:00 27,6 21,9 9 5 20 11 SSE 0,0
06.08.2020 18:00:00 29,4 22,1 13 7 21 11 S 0,0
06.08.2020 17:00:00 29,7 22,4 15 8 21 11 S 0,0
06.08.2020 16:00:00 31,0 22,3 13 7 16 9 SSE 0,0
06.08.2020 15:00:00 31,2 22,8 11 6 15 8 SSE 0,0
06.08.2020 14:00:00 28,7 22,9 8 4 12 7 E -
06.08.2020 13:00:00 29,0 22,5 8 5 13 7 NNE 0,0
06.08.2020 12:00:00 29,5 22,7 8 5 13 7 N 0,0
06.08.2020 11:00:00 29,3 22,8 7 4 12 6 N 0,0
06.08.2020 10:00:00 28,8 22,8 6 4 10 6 N 0,0
06.08.2020 09:00:00 28,1 22,8 8 4 11 6 NNW 0,0
06.08.2020 08:00:00 25,5 22,8 6 3 10 5 NW -
06.08.2020 07:00:00 24,3 22,6 5 3 10 5 NNW 0,0
06.08.2020 06:00:00 24,4 22,4 7 4 14 8 NW 0,0
06.08.2020 05:00:00 24,5 22,2 10 6 16 9 N 0,0
06.08.2020 04:00:00 24,6 22,1 8 4 18 10 NNW 0,0
06.08.2020 03:00:00 24,6 21,5 11 6 15 8 NW 0,0
06.08.2020 02:00:00 24,6 20,1 4 2 10 5 NW -
06.08.2020 01:00:00 24,8 19,6 7 4 14 8 NW 0,0
06.08.2020 00:00:00 24,7 19,8 6 3 9 5 WSW 0,0
05.08.2020 23:00:00 25,0 20,3 2 1 9 5 SW 0,0
05.08.2020 22:00:00 25,4 20,2 3 2 17 9 SW 0,0
05.08.2020 21:00:00 25,8 19,9 4 2 22 12 SW 0,0
05.08.2020 20:00:00 26,1 19,5 11 6 20 11 S -
05.08.2020 19:00:00 27,3 19,1 15 8 20 11 S 0,0
05.08.2020 18:00:00 29,1 18,5 14 8 19 10 S 0,0
05.08.2020 17:00:00 29,8 20,9 13 7 17 9 S 0,0
05.08.2020 16:00:00 29,2 19,5 10 5 16 9 SSE 0,0
05.08.2020 15:00:00 30,0 19,1 11 6 18 10 SSE 0,0
05.08.2020 14:00:00 30,1 18,8 11 6 16 9 SSE -
05.08.2020 13:00:00 29,9 19,9 11 6 14 8 SSE 0,0
05.08.2020 12:00:00 28,8 19,4 9 5 - - SE -
05.08.2020 11:00:00 28,5 19,7 6 4 12 6 E 0,0
05.08.2020 10:00:00 28,6 19,8 6 3 10 5 E 0,0
05.08.2020 09:00:00 27,9 20,2 0 0 11 6 WSW 0,0
05.08.2020 08:00:00 24,4 19,7 11 6 17 9 W -
05.08.2020 07:00:00 22,7 19,3 8 4 16 9 W 0,0
05.08.2020 06:00:00 22,7 19,3 8 4 13 7 WSW 0,0
05.08.2020 05:00:00 22,5 19,1 6 3 15 8 WSW 0,0
05.08.2020 04:00:00 22,6 18,8 2 1 13 7 SW 0,0
05.08.2020 03:00:00 22,9 18,8 3 1 11 6 SW 0,0
05.08.2020 02:00:00 23,0 19,0 1 1 10 5 SW -
05.08.2020 01:00:00 23,3 18,8 1 1 11 6 S 0,0
05.08.2020 00:00:00 23,5 18,4 3 1 10 5 SW 0,0
04.08.2020 23:00:00 23,6 18,2 4 2 13 7 SW 0,0
04.08.2020 22:00:00 23,9 18,3 2 1 22 12 WSW 0,0
04.08.2020 21:00:00 24,3 17,8 17 9 23 13 S 0,0
04.08.2020 20:00:00 24,5 17,7 11 6 18 10 S -
04.08.2020 19:00:00 25,3 17,5 13 7 18 10 SSE 0,0
04.08.2020 18:00:00 25,9 17,8 12 7 16 9 SSE 0,0
04.08.2020 17:00:00 25,7 16,8 7 4 14 8 SE 0,0
04.08.2020 16:00:00 25,8 16,9 8 4 18 10 E 0,0
04.08.2020 15:00:00 26,8 17,5 11 6 24 13 NE 0,0
04.08.2020 14:00:00 25,2 17,6 16 9 33 18 NNE -
04.08.2020 13:00:00 23,3 18,2 26 14 37 20 NNE 0,0
04.08.2020 12:00:00 24,8 18,5 19 11 29 15 NNE 0,0
04.08.2020 11:00:00 22,3 19,5 13 7 28 15 NE 0,8
04.08.2020 10:00:00 24,2 18,6 20 11 34 18 NE 0,0
04.08.2020 09:00:00 24,9 17,4 23 13 31 17 NE 0,0
04.08.2020 08:00:00 24,4 16,6 23 13 32 18 NE -
04.08.2020 07:00:00 24,7 16,4 20 11 35 19 NE 0,0
04.08.2020 06:00:00 24,9 16,3 27 15 38 20 NE 0,0
04.08.2020 05:00:00 25,0 15,6 31 17 47 26 NE 0,0
04.08.2020 04:00:00 25,3 15,6 39 21 45 25 NE 0,0
04.08.2020 03:00:00 25,7 16,0 34 19 46 25 NNE 0,0
04.08.2020 02:00:00 25,7 16,2 27 15 33 18 NE -
04.08.2020 01:00:00 25,6 16,5 22 12 26 14 NE 0,0
04.08.2020 00:00:00 25,4 16,8 21 12 28 15 NNE 0,0
03.08.2020 23:00:00 25,3 16,7 18 10 25 14 NE 0,0
03.08.2020 22:00:00 25,3 16,7 17 9 24 13 NE 0,0
03.08.2020 21:00:00 25,5 16,9 21 11 31 17 NNE 0,0
03.08.2020 20:00:00 25,5 17,7 24 13 31 17 NNE -
03.08.2020 19:00:00 25,6 17,2 23 12 31 17 NNE 0,0
03.08.2020 18:00:00 26,0 18,2 24 13 32 17 NNE 0,0
03.08.2020 17:00:00 26,2 18,3 26 14 35 19 NNE 0,0
03.08.2020 16:00:00 25,6 19,3 27 15 37 20 NNE 0,0
03.08.2020 15:00:00 25,8 19,4 23 13 39 21 N 0,0
03.08.2020 14:00:00 24,9 20,4 31 17 39 21 NNE -
03.08.2020 13:00:00 25,7 19,8 21 11 29 16 NE 0,0
03.08.2020 12:00:00 25,1 19,5 20 11 39 21 ENE 0,0
03.08.2020 11:00:00 24,9 20,2 32 17 38 21 NE 0,0
03.08.2020 10:00:00 26,0 19,1 31 17 37 20 NE 0,0
03.08.2020 09:00:00 26,0 20,1 22 12 34 18 NE 0,0
03.08.2020 08:00:00 25,8 20,1 27 15 36 20 NE -
03.08.2020 07:00:00 25,7 21,6 18 10 26 14 NE 0,0
03.08.2020 06:00:00 25,5 22,0 12 6 18 10 ENE 0,0
03.08.2020 05:00:00 25,7 22,2 13 7 19 11 ENE 0,0
03.08.2020 04:00:00 25,8 21,4 16 9 21 11 ENE 0,0
03.08.2020 03:00:00 26,0 21,9 16 9 21 12 ENE 0,0
03.08.2020 02:00:00 25,9 22,0 9 5 16 8 ENE -
03.08.2020 01:00:00 26,2 21,6 14 7 18 10 ENE 0,0
03.08.2020 00:00:00 26,4 20,7 13 7 22 12 ENE 0,0
02.08.2020 23:00:00 26,8 21,1 19 10 23 12 ENE 0,0
02.08.2020 22:00:00 27,0 21,5 17 9 22 12 ENE 0,0
02.08.2020 21:00:00 27,4 21,4 15 8 19 10 NNE 0,0
02.08.2020 20:00:00 27,7 20,8 16 9 22 12 NE -
02.08.2020 19:00:00 27,7 21,7 19 10 31 17 NNE 0,0
02.08.2020 18:00:00 27,8 21,6 24 13 34 18 N 0,0
02.08.2020 17:00:00 28,2 21,5 29 16 37 20 N 0,0
02.08.2020 16:00:00 28,5 22,0 29 16 36 20 N 0,0
02.08.2020 15:00:00 28,7 22,0 28 15 36 20 N 0,0
02.08.2020 14:00:00 28,8 22,1 31 17 39 21 N -
02.08.2020 13:00:00 28,6 22,6 28 15 40 21 N 0,0
02.08.2020 12:00:00 28,9 21,9 31 17 42 23 N 0,0
02.08.2020 11:00:00 28,7 22,4 32 17 42 23 NNE 0,0
02.08.2020 10:00:00 29,0 22,5 25 14 35 19 NNE 0,0
02.08.2020 09:00:00 28,0 23,2 27 15 35 19 NNE 0,0
02.08.2020 08:00:00 27,9 23,3 20 11 29 16 NNE -
02.08.2020 07:00:00 26,7 23,0 20 11 24 13 NE 0,0
02.08.2020 06:00:00 26,8 24,5 15 8 19 11 NE 0,0
02.08.2020 05:00:00 26,8 25,7 11 6 14 8 NE 0,0
02.08.2020 04:00:00 27,0 25,9 13 7 32 17 ENE 0,0

tt = temperature
td = dewpoint
ff = wind speed
fx = gusts
dd = wind direction
rr = precipitation

Next stations